TFM - Tactical Decision Aid
ID: Runway Winds: CIG/VIS Threshold:

KORD - Chicago/O'Hare Intl, IL, US

Updated at: 0141 UTC 26 Apr 2019
Latest TAF at: 2322 UTC 25 Apr 2019

TAF Board

Time0051Z 26/02Z 26/03Z 26/04Z 26/05Z 26/06Z 26/07Z 26/08Z 26/09Z 26/10Z 26/11Z 26/12Z 26/13Z 26/14Z>>
Type OBS PRVL PRVL PRVL PRVL
  [TEMP]  
PRVL
  [TEMP]  
PRVL
  [TEMP]  
PRVL PRVL PRVL PRVL PRVL PRVL PRVL
VIS 10 >6 >6 6 6
  [5]  
6
  [5]  
6
  [5]  
6 >6 >6 >6 >6 >6 >6
CIG 250 60 60 35 35
  [20]  
35
  [20]  
35
  [20]  
35 -- -- -- -- -- --
Cover OVC OVC OVC BKN BKN
  [OVC]  
BKN
  [OVC]  
BKN
  [OVC]  
BKN SCT SCT SCT SCT SCT SCT
FltCat VFR VFR VFR VFR VFR
  [MVFR]  
VFR
  [MVFR]  
VFR
  [MVFR]  
VFR VFR VFR VFR VFR VFR VFR
WX -- -- -- -SHRA -SHRA
  [SHRA]  
-SHRA
  [SHRA]  
-SHRA
  [SHRA]  
-SHRA -- -- -- -- -- --
WDir 100 350 350 10 10
[10]
10
[10]
10
[10]
10 330 330 330 330 330 330
WSpd 4 11 11 15 15
  [15]  
15
  [15]  
15
  [15]  
15 11 11 11 11 11 11
WGst -- -- -- 25 25
  [25]  
25
  [25]  
25
  [25]  
25 -- -- -- -- -- --

TDA Impact Legend

  None Marginal Slight Moderate High
Visibility (sm) >5 3≤X≤5 1≤X<3 0.5≤X<1 <0.5
Ceiling (100 ft) >30 10≤X≤30 4≤X<10 2≤X<4 <2
Wind Speed (kt) <15 15≤X<25 25≤X<30 ≥30
Wind Gust (kt) <15 15≤X<25 25≤X<35 ≥35
Weather No Wx Reported VCTS -TS,-FZRA TS,FZRA +TS,+FZRA
TAF
KORD 252322Z 2600/2706 06005KT P6SM BKN120
  FM260200 35011KT P6SM BKN060 OVC100
  FM260400 01015G25KT 6SM -SHRA BKN035
  TEMPO 2605/2608 5SM SHRA OVC020
  FM260900 33011KT P6SM SCT035
  FM261500 32017G29KT P6SM SKC
  FM270100 30010KT P6SM FEW250


METAR
KORD 260051Z 10004KT 10SM SCT120 OVC250 14/04 A2966 RMK AO2 SLP043 T01440039
KORD 252351Z 11005KT 10SM BKN120 OVC250 16/03 A2967 RMK AO2 SLP046 T01560033 10194 20150 56012
KORD 252251Z 09006KT 10SM OVC250 16/03 A2968 RMK AO2 SLP049 T01560028

Radar Display
Forecast Discussion